PDT,Max TemperatureF,Mean TemperatureF,Min TemperatureF,Max Dew PointF,MeanDew PointF,Min DewpointF,Max Humidity, Mean Humidity, Min Humidity, Max Sea Level PressureIn, Mean Sea Level PressureIn, Min Sea Level PressureIn, Max VisibilityMiles, Mean VisibilityMiles, Min VisibilityMiles, Max Wind SpeedMPH, Mean Wind SpeedMPH, Max Gust SpeedMPH,PrecipitationIn, CloudCover, Events, WindDirDegrees
2013-5-1,74,66,58,54,53,52,80,63,46,30.12,30.01,29.92,10,10,9,15,5,20,0.00,2,,243
2013-5-2,98,75,51,53,32,-6,83,43,2,30.14,30.09,30.05,10,10,8,38,12,48,0.00,0,,51
2013-5-3,96,74,51,54,39,1,72,38,3,30.03,29.90,29.79,10,10,6,15,5,18,0.00,0,,205
2013-5-4,77,67,56,56,52,43,78,62,46,29.86,29.79,29.76,10,8,6,24,8,29,0.00,2,,222
2013-5-5,69,65,61,52,50,48,69,59,49,29.95,29.89,29.82,10,10,9,16,7,21,T,8,,156
2013-5-6,71,66,60,55,54,48,84,66,47,30.04,29.96,29.88,10,9,3,14,5,18,0.08,6,Rain,166
2013-5-7,74,68,61,54,52,45,72,54,35,30.09,30.04,30.00,10,10,10,17,6,25,0.00,5,,226
2013-5-8,73,65,57,54,51,46,80,61,41,30.12,30.10,30.07,10,10,8,17,6,23,0.00,3,,238
2013-5-9,74,65,56,55,51,46,77,61,44,30.12,30.09,30.05,10,10,9,14,6,18,0.00,1,,176
2013-5-10,78,67,56,56,54,51,80,61,42,30.12,30.08,30.04,10,9,7,15,5,22,0.00,1,,240
2013-5-11,79,70,61,59,57,55,84,68,52,30.09,30.07,30.04,9,6,1,14,5,18,0.00,4,,267
2013-5-12,86,73,59,59,57,54,87,64,40,30.08,30.02,29.94,10,7,0,12,4,16,0.00,2,Fog,250
2013-5-13,82,72,61,58,56,54,78,62,45,30.00,29.97,29.93,10,10,7,10,4,16,0.00,1,,256
2013-5-14,74,66,58,55,53,50,84,67,49,30.02,29.97,29.91,10,9,7,15,6,20,0.00,2,,206
2013-5-15,73,65,56,54,52,48,75,62,49,30.07,30.02,29.97,10,8,7,14,4,21,0.00,2,,228
2013-5-16,72,64,56,54,52,48,80,67,53,30.01,29.97,29.93,10,8,6,14,5,18,0.00,3,,185
2013-5-17,75,66,57,55,52,49,78,64,49,30.01,29.97,29.91,10,10,8,15,5,21,0.00,2,,215
2013-5-18,75,65,54,53,50,46,77,59,41,30.07,30.02,29.99,10,10,9,14,4,18,0.00,0,,213
2013-5-19,77,66,55,56,53,48,77,62,46,30.01,29.96,29.89,10,10,9,14,5,20,0.00,0,,222
2013-5-20,80,68,56,57,54,48,77,59,40,29.98,29.94,29.90,10,9,7,14,5,18,0.00,0,,247
2013-5-21,77,69,60,60,56,50,78,66,54,29.96,29.91,29.86,9,8,7,15,5,22,0.00,0,,213
2013-5-22,76,67,58,53,50,47,69,57,44,29.87,29.84,29.80,10,9,7,17,6,22,0.00,2,,223
2013-5-23,73,65,56,51,48,45,72,55,38,29.96,29.91,29.84,10,9,7,16,6,25,0.00,2,,240
2013-5-24,73,63,53,54,49,44,72,59,45,30.01,29.98,29.93,10,10,8,15,5,20,0.00,0,,234
2013-5-25,73,64,54,54,50,45,72,60,48,30.05,30.02,29.99,10,10,9,18,5,23,0.00,0,,225
2013-5-26,74,65,56,55,52,46,73,60,46,30.07,30.04,30.01,10,10,9,15,5,21,0.00,0,,222
2013-5-27,76,66,55,55,53,48,78,62,46,30.02,29.95,29.88,10,10,9,14,5,18,0.00,0,,178
2013-5-28,81,70,58,56,54,51,78,60,42,29.89,29.83,29.76,10,10,8,15,5,21,0.00,0,,192
2013-5-29,80,70,59,57,53,51,78,59,39,29.84,29.79,29.74,10,10,9,14,6,18,0.00,0,,197
2013-5-30,79,68,57,59,54,49,72,60,47,29.89,29.84,29.79,10,9,8,13,4,20,0.00,0,,204
2013-5-31,77,70,62,58,56,53,78,64,50,29.94,29.89,29.85,9,8,5,14,5,22,0.00,2,,222